sensor_id;sensor_type;location;lat;lon;timestamp;P1;durP1;ratioP1;P2;durP2;ratioP2
13927;SDS011;7036;50.834;4.718;2022-08-11T00:01:49;2.17;;;1.97;;
13927;SDS011;7036;50.834;4.718;2022-08-11T00:04:14;2.73;;;1.93;;
13927;SDS011;7036;50.834;4.718;2022-08-11T00:06:41;1.77;;;1.67;;
13927;SDS011;7036;50.834;4.718;2022-08-11T00:09:10;1.87;;;1.53;;
13927;SDS011;7036;50.834;4.718;2022-08-11T00:11:36;3.50;;;2.10;;
13927;SDS011;7036;50.834;4.718;2022-08-11T00:14:02;3.17;;;1.70;;
13927;SDS011;7036;50.834;4.718;2022-08-11T00:16:28;2.07;;;1.77;;
13927;SDS011;7036;50.834;4.718;2022-08-11T00:18:55;2.50;;;2.10;;
13927;SDS011;7036;50.834;4.718;2022-08-11T00:21:22;2.27;;;1.63;;
13927;SDS011;7036;50.834;4.718;2022-08-11T00:23:53;1.97;;;1.50;;
13927;SDS011;7036;50.834;4.718;2022-08-11T00:26:20;2.37;;;2.10;;
13927;SDS011;7036;50.834;4.718;2022-08-11T00:28:46;2.00;;;1.80;;
13927;SDS011;7036;50.834;4.718;2022-08-11T00:31:27;3.20;;;1.80;;
13927;SDS011;7036;50.834;4.718;2022-08-11T00:33:54;4.97;;;1.87;;
13927;SDS011;7036;50.834;4.718;2022-08-11T00:36:24;3.17;;;1.73;;
13927;SDS011;7036;50.834;4.718;2022-08-11T00:38:49;1.87;;;1.60;;
13927;SDS011;7036;50.834;4.718;2022-08-11T00:44:20;1.70;;;1.60;;
13927;SDS011;7036;50.834;4.718;2022-08-11T00:49:40;2.30;;;1.63;;
13927;SDS011;7036;50.834;4.718;2022-08-11T00:52:32;1.50;;;1.40;;
13927;SDS011;7036;50.834;4.718;2022-08-11T01:01:08;3.70;;;1.83;;
13927;SDS011;7036;50.834;4.718;2022-08-11T01:09:23;3.33;;;1.73;;
13927;SDS011;7036;50.834;4.718;2022-08-11T01:11:57;2.33;;;1.53;;
13927;SDS011;7036;50.834;4.718;2022-08-11T01:47:14;1.57;;;1.47;;
13927;SDS011;7036;50.834;4.718;2022-08-11T01:49:53;2.37;;;1.70;;
13927;SDS011;7036;50.834;4.718;2022-08-11T01:52:54;2.43;;;1.40;;
13927;SDS011;7036;50.834;4.718;2022-08-11T01:55:07;1.57;;;1.47;;
13927;SDS011;7036;50.834;4.718;2022-08-11T01:57:49;3.10;;;1.20;;
13927;SDS011;7036;50.834;4.718;2022-08-11T02:00:15;1.47;;;1.37;;
13927;SDS011;7036;50.834;4.718;2022-08-11T02:05:28;1.30;;;1.20;;
13927;SDS011;7036;50.834;4.718;2022-08-11T02:08:00;1.87;;;1.30;;
13927;SDS011;7036;50.834;4.718;2022-08-11T02:13:32;1.40;;;1.30;;
13927;SDS011;7036;50.834;4.718;2022-08-11T02:19:03;3.27;;;1.77;;
13927;SDS011;7036;50.834;4.718;2022-08-11T02:21:45;3.00;;;1.67;;
13927;SDS011;7036;50.834;4.718;2022-08-11T02:24:33;2.17;;;1.70;;
13927;SDS011;7036;50.834;4.718;2022-08-11T02:27:01;1.50;;;1.40;;
13927;SDS011;7036;50.834;4.718;2022-08-11T02:29:34;2.23;;;1.63;;
13927;SDS011;7036;50.834;4.718;2022-08-11T02:37:40;1.47;;;1.37;;
13927;SDS011;7036;50.834;4.718;2022-08-11T02:43:06;2.07;;;1.30;;
13927;SDS011;7036;50.834;4.718;2022-08-11T02:45:47;1.47;;;1.37;;
13927;SDS011;7036;50.834;4.718;2022-08-11T03:00:18;1.60;;;1.43;;
13927;SDS011;7036;50.834;4.718;2022-08-11T03:13:45;1.33;;;1.23;;
13927;SDS011;7036;50.834;4.718;2022-08-11T03:30:42;1.83;;;1.27;;
13927;SDS011;7036;50.834;4.718;2022-08-11T03:41:33;1.80;;;1.33;;
13927;SDS011;7036;50.834;4.718;2022-08-11T03:49:44;1.40;;;1.30;;
13927;SDS011;7036;50.834;4.718;2022-08-11T03:52:20;1.20;;;1.10;;
13927;SDS011;7036;50.834;4.718;2022-08-11T03:54:49;1.97;;;1.30;;
13927;SDS011;7036;50.834;4.718;2022-08-11T04:03:00;8.63;;;1.50;;
13927;SDS011;7036;50.834;4.718;2022-08-11T04:20:00;1.53;;;1.43;;
13927;SDS011;7036;50.834;4.718;2022-08-11T04:30:29;2.40;;;1.40;;
13927;SDS011;7036;50.834;4.718;2022-08-11T04:33:28;2.50;;;1.43;;
13927;SDS011;7036;50.834;4.718;2022-08-11T04:35:44;2.83;;;1.73;;
13927;SDS011;7036;50.834;4.718;2022-08-11T04:44:49;3.27;;;1.70;;
13927;SDS011;7036;50.834;4.718;2022-08-11T04:50:36;3.17;;;1.43;;
13927;SDS011;7036;50.834;4.718;2022-08-11T04:53:24;1.70;;;1.60;;
13927;SDS011;7036;50.834;4.718;2022-08-11T04:56:24;1.73;;;1.30;;
13927;SDS011;7036;50.834;4.718;2022-08-11T05:02:20;3.13;;;1.90;;
13927;SDS011;7036;50.834;4.718;2022-08-11T05:11:03;5.33;;;1.50;;
13927;SDS011;7036;50.834;4.718;2022-08-11T05:13:44;1.57;;;1.47;;
13927;SDS011;7036;50.834;4.718;2022-08-11T05:16:30;3.27;;;1.70;;
13927;SDS011;7036;50.834;4.718;2022-08-11T05:19:32;3.10;;;1.63;;
13927;SDS011;7036;50.834;4.718;2022-08-11T05:22:18;2.63;;;1.43;;
13927;SDS011;7036;50.834;4.718;2022-08-11T05:25:10;2.30;;;1.80;;
13927;SDS011;7036;50.834;4.718;2022-08-11T05:28:02;2.00;;;1.53;;
13927;SDS011;7036;50.834;4.718;2022-08-11T05:30:59;3.70;;;1.40;;
13927;SDS011;7036;50.834;4.718;2022-08-11T05:33:48;2.43;;;1.50;;
13927;SDS011;7036;50.834;4.718;2022-08-11T05:36:49;3.63;;;1.87;;
13927;SDS011;7036;50.834;4.718;2022-08-11T05:39:10;1.97;;;1.50;;
13927;SDS011;7036;50.834;4.718;2022-08-11T05:41:55;2.80;;;1.43;;
13927;SDS011;7036;50.834;4.718;2022-08-11T05:44:38;1.60;;;1.50;;
13927;SDS011;7036;50.834;4.718;2022-08-11T05:47:24;2.30;;;1.70;;
13927;SDS011;7036;50.834;4.718;2022-08-11T05:50:13;1.73;;;1.63;;
13927;SDS011;7036;50.834;4.718;2022-08-11T05:52:56;2.13;;;1.80;;
13927;SDS011;7036;50.834;4.718;2022-08-11T05:55:42;1.60;;;1.50;;
13927;SDS011;7036;50.834;4.718;2022-08-11T05:58:37;3.17;;;1.47;;
13927;SDS011;7036;50.834;4.718;2022-08-11T06:01:00;3.47;;;1.70;;
13927;SDS011;7036;50.834;4.718;2022-08-11T06:03:27;1.73;;;1.63;;
13927;SDS011;7036;50.834;4.718;2022-08-11T06:05:54;1.70;;;1.60;;
13927;SDS011;7036;50.834;4.718;2022-08-11T06:08:29;2.00;;;1.57;;
13927;SDS011;7036;50.834;4.718;2022-08-11T06:10:58;1.93;;;1.57;;
13927;SDS011;7036;50.834;4.718;2022-08-11T06:13:21;2.43;;;1.70;;
13927;SDS011;7036;50.834;4.718;2022-08-11T06:15:48;3.47;;;1.70;;
13927;SDS011;7036;50.834;4.718;2022-08-11T06:18:15;5.70;;;1.60;;
13927;SDS011;7036;50.834;4.718;2022-08-11T06:20:54;4.00;;;1.60;;
13927;SDS011;7036;50.834;4.718;2022-08-11T06:23:22;3.17;;;1.37;;
13927;SDS011;7036;50.834;4.718;2022-08-11T06:25:51;3.40;;;1.47;;
13927;SDS011;7036;50.834;4.718;2022-08-11T06:28:18;1.67;;;1.57;;
13927;SDS011;7036;50.834;4.718;2022-08-11T06:30:45;5.27;;;2.20;;
13927;SDS011;7036;50.834;4.718;2022-08-11T06:33:15;5.83;;;1.80;;
13927;SDS011;7036;50.834;4.718;2022-08-11T06:35:44;5.30;;;2.40;;
13927;SDS011;7036;50.834;4.718;2022-08-11T06:41:17;3.60;;;2.00;;
13927;SDS011;7036;50.834;4.718;2022-08-11T06:46:27;4.73;;;1.70;;
13927;SDS011;7036;50.834;4.718;2022-08-11T06:48:52;4.03;;;1.93;;
13927;SDS011;7036;50.834;4.718;2022-08-11T06:51:18;2.27;;;1.70;;
13927;SDS011;7036;50.834;4.718;2022-08-11T06:53:55;4.53;;;2.00;;
13927;SDS011;7036;50.834;4.718;2022-08-11T06:56:25;4.57;;;2.20;;
13927;SDS011;7036;50.834;4.718;2022-08-11T06:59:09;2.27;;;1.93;;
13927;SDS011;7036;50.834;4.718;2022-08-11T07:02:05;2.60;;;2.20;;
13927;SDS011;7036;50.834;4.718;2022-08-11T07:13:47;2.77;;;2.20;;
13927;SDS011;7036;50.834;4.718;2022-08-11T07:16:32;4.03;;;2.10;;
13927;SDS011;7036;50.834;4.718;2022-08-11T07:19:03;2.53;;;2.30;;
13927;SDS011;7036;50.834;4.718;2022-08-11T07:21:34;4.40;;;2.27;;
13927;SDS011;7036;50.834;4.718;2022-08-11T07:24:22;3.03;;;2.50;;
13927;SDS011;7036;50.834;4.718;2022-08-11T07:27:07;3.93;;;2.50;;
13927;SDS011;7036;50.834;4.718;2022-08-11T07:29:50;6.13;;;2.60;;
13927;SDS011;7036;50.834;4.718;2022-08-11T07:32:24;9.13;;;2.50;;
13927;SDS011;7036;50.834;4.718;2022-08-11T07:34:49;3.57;;;2.60;;
13927;SDS011;7036;50.834;4.718;2022-08-11T07:37:15;8.23;;;3.20;;
13927;SDS011;7036;50.834;4.718;2022-08-11T07:39:44;3.63;;;2.33;;
13927;SDS011;7036;50.834;4.718;2022-08-11T07:42:12;7.13;;;2.40;;
13927;SDS011;7036;50.834;4.718;2022-08-11T07:44:38;6.47;;;2.30;;
13927;SDS011;7036;50.834;4.718;2022-08-11T07:47:04;6.10;;;2.83;;
13927;SDS011;7036;50.834;4.718;2022-08-11T07:49:49;7.97;;;2.90;;
13927;SDS011;7036;50.834;4.718;2022-08-11T07:52:34;3.43;;;2.33;;
13927;SDS011;7036;50.834;4.718;2022-08-11T07:55:04;2.93;;;2.63;;
13927;SDS011;7036;50.834;4.718;2022-08-11T07:57:29;3.70;;;2.37;;
13927;SDS011;7036;50.834;4.718;2022-08-11T08:00:13;2.93;;;2.60;;
13927;SDS011;7036;50.834;4.718;2022-08-11T08:02:58;6.00;;;2.83;;
13927;SDS011;7036;50.834;4.718;2022-08-11T08:05:45;5.37;;;2.33;;
13927;SDS011;7036;50.834;4.718;2022-08-11T08:08:29;3.43;;;2.37;;
13927;SDS011;7036;50.834;4.718;2022-08-11T08:11:14;4.87;;;2.57;;
13927;SDS011;7036;50.834;4.718;2022-08-11T08:14:00;7.37;;;2.90;;
13927;SDS011;7036;50.834;4.718;2022-08-11T08:16:45;3.80;;;2.53;;
13927;SDS011;7036;50.834;4.718;2022-08-11T08:19:30;4.57;;;2.70;;
13927;SDS011;7036;50.834;4.718;2022-08-11T08:21:57;3.97;;;2.60;;
13927;SDS011;7036;50.834;4.718;2022-08-11T08:24:24;3.63;;;3.00;;
13927;SDS011;7036;50.834;4.718;2022-08-11T08:26:51;5.30;;;2.80;;
13927;SDS011;7036;50.834;4.718;2022-08-11T08:29:27;4.80;;;2.57;;
13927;SDS011;7036;50.834;4.718;2022-08-11T08:32:09;3.40;;;3.03;;
13927;SDS011;7036;50.834;4.718;2022-08-11T08:34:35;7.90;;;2.90;;
13927;SDS011;7036;50.834;4.718;2022-08-11T08:37:02;6.37;;;2.97;;
13927;SDS011;7036;50.834;4.718;2022-08-11T08:39:29;6.60;;;3.47;;
13927;SDS011;7036;50.834;4.718;2022-08-11T08:41:56;4.50;;;2.60;;
13927;SDS011;7036;50.834;4.718;2022-08-11T08:44:23;4.00;;;2.80;;
13927;SDS011;7036;50.834;4.718;2022-08-11T08:46:56;3.30;;;2.77;;
13927;SDS011;7036;50.834;4.718;2022-08-11T08:49:25;4.60;;;2.70;;
13927;SDS011;7036;50.834;4.718;2022-08-11T08:51:53;3.27;;;2.97;;
13927;SDS011;7036;50.834;4.718;2022-08-11T08:54:24;3.53;;;2.67;;
13927;SDS011;7036;50.834;4.718;2022-08-11T08:56:47;4.00;;;2.60;;
13927;SDS011;7036;50.834;4.718;2022-08-11T08:59:13;3.30;;;2.63;;
13927;SDS011;7036;50.834;4.718;2022-08-11T09:01:54;4.13;;;2.63;;
13927;SDS011;7036;50.834;4.718;2022-08-11T09:04:16;2.67;;;2.40;;
13927;SDS011;7036;50.834;4.718;2022-08-11T09:06:43;4.63;;;2.70;;
13927;SDS011;7036;50.834;4.718;2022-08-11T09:09:10;5.80;;;2.63;;
13927;SDS011;7036;50.834;4.718;2022-08-11T09:11:40;3.87;;;3.03;;
13927;SDS011;7036;50.834;4.718;2022-08-11T09:14:22;3.77;;;2.73;;
13927;SDS011;7036;50.834;4.718;2022-08-11T09:16:47;4.27;;;2.83;;
13927;SDS011;7036;50.834;4.718;2022-08-11T09:19:16;4.37;;;2.47;;
13927;SDS011;7036;50.834;4.718;2022-08-11T09:21:50;4.53;;;2.70;;
13927;SDS011;7036;50.834;4.718;2022-08-11T09:24:10;3.00;;;2.70;;
13927;SDS011;7036;50.834;4.718;2022-08-11T09:26:54;3.43;;;2.80;;
13927;SDS011;7036;50.834;4.718;2022-08-11T09:29:31;2.70;;;2.50;;
13927;SDS011;7036;50.834;4.718;2022-08-11T09:31:58;2.83;;;2.60;;
13927;SDS011;7036;50.834;4.718;2022-08-11T09:34:25;3.03;;;2.70;;
13927;SDS011;7036;50.834;4.718;2022-08-11T09:36:52;4.57;;;2.77;;
13927;SDS011;7036;50.834;4.718;2022-08-11T09:39:37;7.03;;;3.10;;
13927;SDS011;7036;50.834;4.718;2022-08-11T09:42:22;2.97;;;2.53;;
13927;SDS011;7036;50.834;4.718;2022-08-11T09:44:49;4.00;;;2.73;;
13927;SDS011;7036;50.834;4.718;2022-08-11T09:47:26;2.77;;;2.30;;
13927;SDS011;7036;50.834;4.718;2022-08-11T09:49:52;3.70;;;2.57;;
13927;SDS011;7036;50.834;4.718;2022-08-11T09:52:18;4.20;;;2.80;;
13927;SDS011;7036;50.834;4.718;2022-08-11T09:54:45;3.10;;;2.63;;
13927;SDS011;7036;50.834;4.718;2022-08-11T09:57:12;5.30;;;3.00;;
13927;SDS011;7036;50.834;4.718;2022-08-11T09:59:57;3.30;;;3.00;;
13927;SDS011;7036;50.834;4.718;2022-08-11T10:02:26;8.73;;;3.80;;
13927;SDS011;7036;50.834;4.718;2022-08-11T10:04:51;5.93;;;3.57;;
13927;SDS011;7036;50.834;4.718;2022-08-11T10:07:18;7.37;;;3.20;;
13927;SDS011;7036;50.834;4.718;2022-08-11T10:09:46;7.83;;;3.40;;
13927;SDS011;7036;50.834;4.718;2022-08-11T10:12:13;9.50;;;4.83;;
13927;SDS011;7036;50.834;4.718;2022-08-11T10:14:47;6.90;;;4.17;;
13927;SDS011;7036;50.834;4.718;2022-08-11T10:17:32;4.07;;;3.33;;
13927;SDS011;7036;50.834;4.718;2022-08-11T10:19:58;7.73;;;3.40;;
13927;SDS011;7036;50.834;4.718;2022-08-11T10:22:24;9.80;;;3.90;;
13927;SDS011;7036;50.834;4.718;2022-08-11T10:25:10;5.23;;;3.30;;
13927;SDS011;7036;50.834;4.718;2022-08-11T10:27:55;3.27;;;2.97;;
13927;SDS011;7036;50.834;4.718;2022-08-11T10:30:23;4.57;;;3.37;;
13927;SDS011;7036;50.834;4.718;2022-08-11T10:33:12;3.33;;;3.03;;
13927;SDS011;7036;50.834;4.718;2022-08-11T10:35:57;6.03;;;3.57;;
13927;SDS011;7036;50.834;4.718;2022-08-11T10:38:24;4.83;;;3.70;;
13927;SDS011;7036;50.834;4.718;2022-08-11T10:40:51;4.90;;;3.30;;
13927;SDS011;7036;50.834;4.718;2022-08-11T10:43:18;7.93;;;3.73;;
13927;SDS011;7036;50.834;4.718;2022-08-11T10:45:45;4.10;;;3.37;;
13927;SDS011;7036;50.834;4.718;2022-08-11T10:48:33;5.60;;;3.10;;
13927;SDS011;7036;50.834;4.718;2022-08-11T10:50:57;4.53;;;3.10;;
13927;SDS011;7036;50.834;4.718;2022-08-11T10:53:40;3.73;;;3.03;;
13927;SDS011;7036;50.834;4.718;2022-08-11T10:56:24;6.80;;;3.53;;
13927;SDS011;7036;50.834;4.718;2022-08-11T10:59:09;28.00;;;14.83;;
13927;SDS011;7036;50.834;4.718;2022-08-11T11:01:38;53.93;;;30.40;;
13927;SDS011;7036;50.834;4.718;2022-08-11T11:04:04;40.37;;;23.30;;
13927;SDS011;7036;50.834;4.718;2022-08-11T11:06:32;24.73;;;15.10;;
13927;SDS011;7036;50.834;4.718;2022-08-11T11:09:23;25.97;;;13.50;;
13927;SDS011;7036;50.834;4.718;2022-08-11T11:11:55;18.67;;;12.50;;
13927;SDS011;7036;50.834;4.718;2022-08-11T11:14:39;19.53;;;12.57;;
13927;SDS011;7036;50.834;4.718;2022-08-11T11:17:27;24.30;;;13.00;;
13927;SDS011;7036;50.834;4.718;2022-08-11T11:20:09;17.27;;;11.20;;
13927;SDS011;7036;50.834;4.718;2022-08-11T11:22:35;17.27;;;10.50;;
13927;SDS011;7036;50.834;4.718;2022-08-11T11:25:15;24.03;;;11.50;;
13927;SDS011;7036;50.834;4.718;2022-08-11T11:27:46;18.10;;;10.53;;
13927;SDS011;7036;50.834;4.718;2022-08-11T11:30:10;14.90;;;10.40;;
13927;SDS011;7036;50.834;4.718;2022-08-11T11:38:01;14.73;;;8.60;;
13927;SDS011;7036;50.834;4.718;2022-08-11T11:40:28;12.77;;;8.23;;
13927;SDS011;7036;50.834;4.718;2022-08-11T11:42:55;11.70;;;7.47;;
13927;SDS011;7036;50.834;4.718;2022-08-11T11:45:22;9.77;;;7.07;;
13927;SDS011;7036;50.834;4.718;2022-08-11T11:47:51;9.63;;;7.10;;
13927;SDS011;7036;50.834;4.718;2022-08-11T11:50:21;11.17;;;6.83;;
13927;SDS011;7036;50.834;4.718;2022-08-11T11:52:52;13.37;;;6.50;;
13927;SDS011;7036;50.834;4.718;2022-08-11T11:55:20;10.90;;;6.70;;
13927;SDS011;7036;50.834;4.718;2022-08-11T11:57:53;10.00;;;6.60;;
13927;SDS011;7036;50.834;4.718;2022-08-11T12:00:35;11.33;;;6.00;;
13927;SDS011;7036;50.834;4.718;2022-08-11T12:03:20;12.80;;;6.67;;
13927;SDS011;7036;50.834;4.718;2022-08-11T12:05:47;7.53;;;5.80;;
13927;SDS011;7036;50.834;4.718;2022-08-11T12:08:14;9.70;;;5.47;;
13927;SDS011;7036;50.834;4.718;2022-08-11T12:11:00;8.00;;;4.97;;
13927;SDS011;7036;50.834;4.718;2022-08-11T12:13:48;6.80;;;5.57;;
13927;SDS011;7036;50.834;4.718;2022-08-11T12:16:15;11.40;;;6.00;;
13927;SDS011;7036;50.834;4.718;2022-08-11T12:18:42;9.73;;;5.23;;
13927;SDS011;7036;50.834;4.718;2022-08-11T12:21:08;6.77;;;4.93;;
13927;SDS011;7036;50.834;4.718;2022-08-11T12:23:36;7.20;;;4.43;;
13927;SDS011;7036;50.834;4.718;2022-08-11T12:26:20;9.87;;;5.10;;
13927;SDS011;7036;50.834;4.718;2022-08-11T12:29:06;5.33;;;4.50;;
13927;SDS011;7036;50.834;4.718;2022-08-11T12:31:33;6.73;;;4.70;;
13927;SDS011;7036;50.834;4.718;2022-08-11T12:34:07;8.17;;;4.47;;
13927;SDS011;7036;50.834;4.718;2022-08-11T12:36:36;5.70;;;4.00;;
13927;SDS011;7036;50.834;4.718;2022-08-11T12:39:19;4.97;;;4.13;;
13927;SDS011;7036;50.834;4.718;2022-08-11T12:41:46;7.17;;;4.57;;
13927;SDS011;7036;50.834;4.718;2022-08-11T12:44:31;6.80;;;4.77;;
13927;SDS011;7036;50.834;4.718;2022-08-11T12:47:18;5.90;;;4.20;;
13927;SDS011;7036;50.834;4.718;2022-08-11T12:49:45;4.50;;;4.10;;
13927;SDS011;7036;50.834;4.718;2022-08-11T12:52:31;4.73;;;3.97;;
13927;SDS011;7036;50.834;4.718;2022-08-11T12:54:57;6.00;;;4.47;;
13927;SDS011;7036;50.834;4.718;2022-08-11T13:00:14;4.73;;;3.83;;
13927;SDS011;7036;50.834;4.718;2022-08-11T13:02:59;4.53;;;3.80;;
13927;SDS011;7036;50.834;4.718;2022-08-11T13:05:45;4.20;;;3.43;;
13927;SDS011;7036;50.834;4.718;2022-08-11T13:08:11;5.77;;;3.70;;
13927;SDS011;7036;50.834;4.718;2022-08-11T13:10:38;6.70;;;3.93;;
13927;SDS011;7036;50.834;4.718;2022-08-11T13:13:24;5.07;;;3.50;;
13927;SDS011;7036;50.834;4.718;2022-08-11T13:15:50;5.43;;;3.50;;
13927;SDS011;7036;50.834;4.718;2022-08-11T13:18:18;6.73;;;3.27;;
13927;SDS011;7036;50.834;4.718;2022-08-11T13:20:44;5.03;;;3.50;;
13927;SDS011;7036;50.834;4.718;2022-08-11T13:23:11;5.77;;;3.33;;
13927;SDS011;7036;50.834;4.718;2022-08-11T13:25:38;3.50;;;3.20;;
13927;SDS011;7036;50.834;4.718;2022-08-11T13:28:08;2.97;;;2.67;;
13927;SDS011;7036;50.834;4.718;2022-08-11T13:30:32;3.70;;;3.33;;
13927;SDS011;7036;50.834;4.718;2022-08-11T13:33:17;4.13;;;3.20;;
13927;SDS011;7036;50.834;4.718;2022-08-11T13:35:47;5.50;;;3.00;;
13927;SDS011;7036;50.834;4.718;2022-08-11T13:38:13;4.83;;;3.27;;
13927;SDS011;7036;50.834;4.718;2022-08-11T13:40:40;5.30;;;3.20;;
13927;SDS011;7036;50.834;4.718;2022-08-11T13:43:07;5.30;;;3.07;;
13927;SDS011;7036;50.834;4.718;2022-08-11T13:45:34;7.63;;;3.17;;
13927;SDS011;7036;50.834;4.718;2022-08-11T13:48:01;3.93;;;2.90;;
13927;SDS011;7036;50.834;4.718;2022-08-11T13:50:28;3.70;;;3.10;;
13927;SDS011;7036;50.834;4.718;2022-08-11T13:53:16;4.30;;;2.87;;
13927;SDS011;7036;50.834;4.718;2022-08-11T13:55:42;5.50;;;3.70;;
13927;SDS011;7036;50.834;4.718;2022-08-11T13:58:09;4.07;;;2.83;;
13927;SDS011;7036;50.834;4.718;2022-08-11T14:00:36;3.57;;;2.90;;
13927;SDS011;7036;50.834;4.718;2022-08-11T14:03:05;3.50;;;2.83;;
13927;SDS011;7036;50.834;4.718;2022-08-11T14:05:32;4.27;;;3.10;;
13927;SDS011;7036;50.834;4.718;2022-08-11T14:07:58;3.10;;;2.80;;
13927;SDS011;7036;50.834;4.718;2022-08-11T14:10:27;4.60;;;2.93;;
13927;SDS011;7036;50.834;4.718;2022-08-11T14:12:57;3.40;;;3.10;;
13927;SDS011;7036;50.834;4.718;2022-08-11T14:15:42;3.83;;;2.80;;
13927;SDS011;7036;50.834;4.718;2022-08-11T14:18:10;2.77;;;2.43;;
13927;SDS011;7036;50.834;4.718;2022-08-11T14:20:36;2.47;;;2.27;;
13927;SDS011;7036;50.834;4.718;2022-08-11T14:23:23;2.63;;;2.40;;
13927;SDS011;7036;50.834;4.718;2022-08-11T14:25:49;2.87;;;2.60;;
13927;SDS011;7036;50.834;4.718;2022-08-11T14:28:34;4.13;;;2.80;;
13927;SDS011;7036;50.834;4.718;2022-08-11T14:31:01;2.90;;;2.70;;
13927;SDS011;7036;50.834;4.718;2022-08-11T14:33:29;3.67;;;2.87;;
13927;SDS011;7036;50.834;4.718;2022-08-11T14:35:55;2.47;;;2.30;;
13927;SDS011;7036;50.834;4.718;2022-08-11T14:38:22;2.60;;;2.40;;
13927;SDS011;7036;50.834;4.718;2022-08-11T14:40:49;2.50;;;2.30;;
13927;SDS011;7036;50.834;4.718;2022-08-11T14:43:34;3.97;;;2.50;;
13927;SDS011;7036;50.834;4.718;2022-08-11T14:46:19;3.93;;;2.50;;
13927;SDS011;7036;50.834;4.718;2022-08-11T14:49:04;3.67;;;3.00;;
13927;SDS011;7036;50.834;4.718;2022-08-11T14:51:31;2.73;;;2.53;;
13927;SDS011;7036;50.834;4.718;2022-08-11T14:53:58;2.83;;;2.63;;
13927;SDS011;7036;50.834;4.718;2022-08-11T14:56:25;2.70;;;2.37;;
13927;SDS011;7036;50.834;4.718;2022-08-11T14:59:00;3.60;;;3.07;;
13927;SDS011;7036;50.834;4.718;2022-08-11T15:01:27;4.27;;;3.97;;
13927;SDS011;7036;50.834;4.718;2022-08-11T15:04:12;5.17;;;4.03;;
13927;SDS011;7036;50.834;4.718;2022-08-11T15:06:39;4.77;;;4.43;;
13927;SDS011;7036;50.834;4.718;2022-08-11T15:09:06;5.03;;;4.63;;
13927;SDS011;7036;50.834;4.718;2022-08-11T15:11:33;5.77;;;4.90;;
13927;SDS011;7036;50.834;4.718;2022-08-11T15:14:09;5.93;;;4.57;;
13927;SDS011;7036;50.834;4.718;2022-08-11T15:16:36;5.10;;;4.10;;
13927;SDS011;7036;50.834;4.718;2022-08-11T15:19:21;5.27;;;4.77;;
13927;SDS011;7036;50.834;4.718;2022-08-11T15:21:48;4.63;;;4.23;;
13927;SDS011;7036;50.834;4.718;2022-08-11T15:24:33;4.67;;;4.27;;
13927;SDS011;7036;50.834;4.718;2022-08-11T15:27:00;4.23;;;3.93;;
13927;SDS011;7036;50.834;4.718;2022-08-11T15:29:45;5.77;;;4.07;;
13927;SDS011;7036;50.834;4.718;2022-08-11T15:32:32;5.80;;;4.17;;
13927;SDS011;7036;50.834;4.718;2022-08-11T15:35:16;6.10;;;3.97;;
13927;SDS011;7036;50.834;4.718;2022-08-11T15:38:02;4.30;;;4.00;;
13927;SDS011;7036;50.834;4.718;2022-08-11T15:40:30;3.80;;;3.50;;
13927;SDS011;7036;50.834;4.718;2022-08-11T15:43:20;4.57;;;4.27;;
13927;SDS011;7036;50.834;4.718;2022-08-11T15:46:07;3.93;;;3.63;;
13927;SDS011;7036;50.834;4.718;2022-08-11T15:53:44;3.73;;;3.43;;
13927;SDS011;7036;50.834;4.718;2022-08-11T15:56:12;3.60;;;3.20;;
13927;SDS011;7036;50.834;4.718;2022-08-11T15:58:41;3.83;;;3.50;;
13927;SDS011;7036;50.834;4.718;2022-08-11T16:01:26;4.10;;;3.47;;
13927;SDS011;7036;50.834;4.718;2022-08-11T16:04:18;3.07;;;2.77;;
13927;SDS011;7036;50.834;4.718;2022-08-11T16:09:12;3.93;;;2.90;;
13927;SDS011;7036;50.834;4.718;2022-08-11T16:11:38;4.00;;;2.93;;
13927;SDS011;7036;50.834;4.718;2022-08-11T16:14:05;3.60;;;3.30;;
13927;SDS011;7036;50.834;4.718;2022-08-11T16:16:50;4.10;;;2.97;;
13927;SDS011;7036;50.834;4.718;2022-08-11T16:19:17;6.10;;;3.13;;
13927;SDS011;7036;50.834;4.718;2022-08-11T16:21:44;2.73;;;2.53;;
13927;SDS011;7036;50.834;4.718;2022-08-11T16:24:11;3.60;;;3.13;;
13927;SDS011;7036;50.834;4.718;2022-08-11T16:26:40;3.73;;;2.90;;
13927;SDS011;7036;50.834;4.718;2022-08-11T16:29:05;5.77;;;3.13;;
13927;SDS011;7036;50.834;4.718;2022-08-11T16:31:32;3.17;;;2.70;;
13927;SDS011;7036;50.834;4.718;2022-08-11T16:33:59;3.20;;;2.47;;
13927;SDS011;7036;50.834;4.718;2022-08-11T16:36:26;11.30;;;2.83;;
13927;SDS011;7036;50.834;4.718;2022-08-11T16:39:12;3.67;;;2.73;;
13927;SDS011;7036;50.834;4.718;2022-08-11T16:41:39;2.73;;;2.40;;
13927;SDS011;7036;50.834;4.718;2022-08-11T16:44:23;2.83;;;2.50;;
13927;SDS011;7036;50.834;4.718;2022-08-11T16:47:15;2.83;;;2.63;;
13927;SDS011;7036;50.834;4.718;2022-08-11T16:49:45;2.40;;;2.20;;
13927;SDS011;7036;50.834;4.718;2022-08-11T16:52:11;3.57;;;2.30;;
13927;SDS011;7036;50.834;4.718;2022-08-11T16:54:38;3.23;;;2.37;;
13927;SDS011;7036;50.834;4.718;2022-08-11T16:57:05;2.70;;;2.50;;
13927;SDS011;7036;50.834;4.718;2022-08-11T16:59:50;2.97;;;2.60;;
13927;SDS011;7036;50.834;4.718;2022-08-11T17:02:20;2.73;;;2.53;;
13927;SDS011;7036;50.834;4.718;2022-08-11T17:04:49;4.33;;;2.43;;
13927;SDS011;7036;50.834;4.718;2022-08-11T17:07:30;2.40;;;2.20;;
13927;SDS011;7036;50.834;4.718;2022-08-11T17:10:20;2.63;;;2.43;;
13927;SDS011;7036;50.834;4.718;2022-08-11T17:13:03;2.93;;;2.17;;
13927;SDS011;7036;50.834;4.718;2022-08-11T17:15:37;2.30;;;2.20;;
13927;SDS011;7036;50.834;4.718;2022-08-11T17:18:21;3.10;;;2.80;;
13927;SDS011;7036;50.834;4.718;2022-08-11T17:21:10;2.07;;;1.87;;
13927;SDS011;7036;50.834;4.718;2022-08-11T17:23:34;2.93;;;2.47;;
13927;SDS011;7036;50.834;4.718;2022-08-11T17:26:20;2.93;;;2.43;;
13927;SDS011;7036;50.834;4.718;2022-08-11T17:28:48;2.27;;;2.07;;
13927;SDS011;7036;50.834;4.718;2022-08-11T17:31:16;2.30;;;2.10;;
13927;SDS011;7036;50.834;4.718;2022-08-11T17:34:02;2.90;;;2.40;;
13927;SDS011;7036;50.834;4.718;2022-08-11T17:36:47;2.93;;;2.20;;
13927;SDS011;7036;50.834;4.718;2022-08-11T17:39:14;2.47;;;2.27;;
13927;SDS011;7036;50.834;4.718;2022-08-11T17:41:41;2.63;;;2.30;;
13927;SDS011;7036;50.834;4.718;2022-08-11T17:44:26;4.70;;;2.43;;
13927;SDS011;7036;50.834;4.718;2022-08-11T17:47:12;2.30;;;2.10;;
13927;SDS011;7036;50.834;4.718;2022-08-11T17:49:57;3.23;;;2.10;;
13927;SDS011;7036;50.834;4.718;2022-08-11T17:52:24;2.73;;;2.53;;
13927;SDS011;7036;50.834;4.718;2022-08-11T17:55:10;2.10;;;2.00;;
13927;SDS011;7036;50.834;4.718;2022-08-11T17:57:55;5.33;;;2.40;;
13927;SDS011;7036;50.834;4.718;2022-08-11T18:00:41;3.70;;;2.40;;
13927;SDS011;7036;50.834;4.718;2022-08-11T18:03:08;2.33;;;2.17;;
13927;SDS011;7036;50.834;4.718;2022-08-11T18:05:54;3.27;;;2.50;;
13927;SDS011;7036;50.834;4.718;2022-08-11T18:08:21;3.63;;;2.13;;
13927;SDS011;7036;50.834;4.718;2022-08-11T18:11:06;3.63;;;2.40;;
13927;SDS011;7036;50.834;4.718;2022-08-11T18:13:51;3.80;;;2.40;;
13927;SDS011;7036;50.834;4.718;2022-08-11T18:16:36;2.20;;;2.00;;
13927;SDS011;7036;50.834;4.718;2022-08-11T18:19:21;1.97;;;1.80;;
13927;SDS011;7036;50.834;4.718;2022-08-11T18:22:08;2.47;;;2.27;;
13927;SDS011;7036;50.834;4.718;2022-08-11T18:24:53;2.23;;;2.03;;
13927;SDS011;7036;50.834;4.718;2022-08-11T18:27:41;4.00;;;2.53;;
13927;SDS011;7036;50.834;4.718;2022-08-11T18:30:24;3.23;;;2.23;;
13927;SDS011;7036;50.834;4.718;2022-08-11T18:33:09;2.70;;;2.50;;
13927;SDS011;7036;50.834;4.718;2022-08-11T18:35:58;3.50;;;2.33;;
13927;SDS011;7036;50.834;4.718;2022-08-11T18:38:39;1.97;;;1.87;;
13927;SDS011;7036;50.834;4.718;2022-08-11T18:41:25;3.23;;;2.03;;
13927;SDS011;7036;50.834;4.718;2022-08-11T18:44:09;2.47;;;2.27;;
13927;SDS011;7036;50.834;4.718;2022-08-11T18:46:54;2.20;;;2.10;;
13927;SDS011;7036;50.834;4.718;2022-08-11T18:49:40;2.40;;;2.13;;
13927;SDS011;7036;50.834;4.718;2022-08-11T18:52:24;9.57;;;2.60;;
13927;SDS011;7036;50.834;4.718;2022-08-11T18:55:10;3.90;;;2.47;;
13927;SDS011;7036;50.834;4.718;2022-08-11T18:57:55;3.00;;;2.00;;
13927;SDS011;7036;50.834;4.718;2022-08-11T19:00:40;2.50;;;2.20;;
13927;SDS011;7036;50.834;4.718;2022-08-11T19:03:26;7.13;;;2.30;;